Fuglebjerg, Denmark
Current Conditions -  °F | °C
As of 5:20 AM on Thursday 27 Nov 2014 (Local Time) from EKAV Reporting Station
Broken Clouds Broken Clouds  
Wind Chill: 38°   Ceiling: 1300
Heat Index: 45°   Visibility: 6mi
Dew Point: 39°   Wind: 15mph
Humidity: 81%   Direction: 130°SE
Pressure: 30.12"   Gusts: NA
Location:  55.31°N, 11.55°E
Report Text: EKAV 270420Z AUTO 13013KT 9999NDV BKN013/// 07/04 Q1020
Loading
Personal Weather Stations






























Interactive Weather Map New forecast layout! Learn more

10-Day Weather Forecast

Advertisements
Track Severe Weather on mobile